ケープタウン国際空港の過去48時間の天気

ケープタウン国際空港 (Cape Town, Cape Town International Airport)

現在時刻: 10/19 01:22 SAST (10/18 23:22 UTC) 以下の時間は現地時間です。

過去48時間のMETAR気象情報
時間 風向 風速(m/s) 視程 気温(℃) 湿度(%) 気圧(hPa) 天気現象
19 01:00 4 10km以上 15 94 1018
19 00:00 3 10km以上 16 94 1018
18 23:56 3 10km以上 16 94 1018
18 23:34 南南西 5 10km以上 17 83 1017 弱い霧雨
18 23:00 南南西 3 10km以上 17 83 1017
18 22:00 南南西 3 10km以上 18 73 1017
FACT 182300Z 18007KT 9999 FEW020 BKN040 15/14 Q1018 NOSIG
FACT 182200Z 19005KT 9999 FEW008 BKN020 16/15 Q1018 TEMPO BKN015
FACT 182156Z 19005KT 9999 FEW008 BKN020 16/15 Q1018 TEMPO BKN015
FACT 182134Z 20009KT 9999 -DZ SCT008 BKN015 17/14 Q1017 TEMPO BKN008
FACT 182100Z 20005KT 9999 BKN020 17/14 Q1017 NOSIG
FACT 182000Z 21006KT 9999 BKN030 18/13 Q1017 NOSIG